Terminal Aerodrome Forecast
Issued by NWS

Home | Current Version | Previous Version | Graphics & Text | Print | Product List | Glossary On
Versions: 1 2 3 4 5 6 7 8 9 10 11 12 13 14 15 16 17 18 19 20 21 22 23 24 25 26 27 28 29 30 31 32 33 34 35 36 37 38
072
FTUS43 KGRB 251735
TAFRHI
TAF
KRHI 251735Z 2518/2618 11008KT P6SM SCT070 BKN200
     FM252300 12009KT 6SM -SHRA BR BKN035 OVC070
      TEMPO 2600/2603 2SM +TSRA BKN006 OVC015CB
     FM260500 15005KT 1SM BR BKN004 BKN010
     FM261500 21007KT P6SM BKN015=

USA.gov is the U.S. government's official web portal to all federal, state and local government web resources and services.